Fort Story, Virginia
Current Conditions -  °F | °C
As of 2:56 PM on Saturday 25 Oct 2014 (Local Time) from KNTU Reporting Station
Clear Clear  
Wind Chill: 21°   Ceiling: Unl
Heat Index: 21°   Visibility: 10mi
Dew Point:   Wind: 8mph
Humidity: 32%   Direction: 280°W
Pressure: 29.87"   Gusts: NA
Location:  36.922°N, 76.0108°W
Report Text: KNTU 251856Z 28007KT 10SM CLR 21/04 A2987 RMK AO2 SLP117 T02110039
Loading
Personal Weather Stations






























Interactive Weather Map
Tropical Storm Tracking
New forecast layout! Learn more

10-Day Weather Forecast

Advertisements
Track Severe Weather on mobile